sensor_id;sensor_type;location;lat;lon;timestamp;P1;durP1;ratioP1;P2;durP2;ratioP2
21170;SDS011;10743;52.160;20.910;2023-03-03T00:01:56;218.37;;;76.73;;
21170;SDS011;10743;52.160;20.910;2023-03-03T00:04:23;228.87;;;76.73;;
21170;SDS011;10743;52.160;20.910;2023-03-03T00:06:50;233.30;;;78.93;;
21170;SDS011;10743;52.160;20.910;2023-03-03T00:09:18;226.80;;;79.13;;
21170;SDS011;10743;52.160;20.910;2023-03-03T00:11:46;229.40;;;77.87;;
21170;SDS011;10743;52.160;20.910;2023-03-03T00:14:21;234.13;;;77.90;;
21170;SDS011;10743;52.160;20.910;2023-03-03T00:16:59;214.10;;;75.50;;
21170;SDS011;10743;52.160;20.910;2023-03-03T00:19:28;228.40;;;77.23;;
21170;SDS011;10743;52.160;20.910;2023-03-03T00:22:06;226.03;;;79.30;;
21170;SDS011;10743;52.160;20.910;2023-03-03T00:25:00;217.13;;;77.33;;
21170;SDS011;10743;52.160;20.910;2023-03-03T00:27:45;225.20;;;77.27;;
21170;SDS011;10743;52.160;20.910;2023-03-03T00:30:46;227.70;;;77.47;;
21170;SDS011;10743;52.160;20.910;2023-03-03T00:33:53;241.30;;;82.73;;
21170;SDS011;10743;52.160;20.910;2023-03-03T00:38:42;226.90;;;80.00;;
21170;SDS011;10743;52.160;20.910;2023-03-03T00:41:18;220.23;;;79.47;;
21170;SDS011;10743;52.160;20.910;2023-03-03T00:43:50;214.80;;;77.77;;
21170;SDS011;10743;52.160;20.910;2023-03-03T00:46:19;239.07;;;79.80;;
21170;SDS011;10743;52.160;20.910;2023-03-03T00:48:49;229.27;;;77.97;;
21170;SDS011;10743;52.160;20.910;2023-03-03T00:51:24;229.30;;;77.57;;
21170;SDS011;10743;52.160;20.910;2023-03-03T00:53:56;209.90;;;76.80;;
21170;SDS011;10743;52.160;20.910;2023-03-03T00:56:24;221.03;;;77.77;;
21170;SDS011;10743;52.160;20.910;2023-03-03T00:58:52;228.43;;;77.80;;
21170;SDS011;10743;52.160;20.910;2023-03-03T01:01:21;229.40;;;77.73;;
21170;SDS011;10743;52.160;20.910;2023-03-03T01:03:52;222.60;;;77.20;;
21170;SDS011;10743;52.160;20.910;2023-03-03T01:06:19;224.83;;;76.60;;
21170;SDS011;10743;52.160;20.910;2023-03-03T01:08:46;215.00;;;75.17;;
21170;SDS011;10743;52.160;20.910;2023-03-03T01:11:14;206.90;;;73.17;;
21170;SDS011;10743;52.160;20.910;2023-03-03T01:13:47;217.53;;;74.23;;
21170;SDS011;10743;52.160;20.910;2023-03-03T01:16:16;205.57;;;70.60;;
21170;SDS011;10743;52.160;20.910;2023-03-03T01:18:43;208.67;;;72.00;;
21170;SDS011;10743;52.160;20.910;2023-03-03T01:21:11;206.37;;;72.63;;
21170;SDS011;10743;52.160;20.910;2023-03-03T01:23:38;204.47;;;72.17;;
21170;SDS011;10743;52.160;20.910;2023-03-03T01:26:06;208.20;;;72.50;;
21170;SDS011;10743;52.160;20.910;2023-03-03T01:28:34;210.60;;;73.13;;
21170;SDS011;10743;52.160;20.910;2023-03-03T01:31:01;203.63;;;70.73;;
21170;SDS011;10743;52.160;20.910;2023-03-03T01:33:31;208.33;;;73.57;;
21170;SDS011;10743;52.160;20.910;2023-03-03T01:35:59;212.33;;;72.97;;
21170;SDS011;10743;52.160;20.910;2023-03-03T01:38:28;203.23;;;73.10;;
21170;SDS011;10743;52.160;20.910;2023-03-03T01:40:57;206.70;;;73.47;;
21170;SDS011;10743;52.160;20.910;2023-03-03T01:43:26;206.73;;;72.57;;
21170;SDS011;10743;52.160;20.910;2023-03-03T01:48:39;212.03;;;73.43;;
21170;SDS011;10743;52.160;20.910;2023-03-03T01:53:56;201.40;;;71.40;;
21170;SDS011;10743;52.160;20.910;2023-03-03T01:56:26;212.57;;;71.17;;
21170;SDS011;10743;52.160;20.910;2023-03-03T01:58:57;215.27;;;70.63;;
21170;SDS011;10743;52.160;20.910;2023-03-03T02:01:39;200.97;;;70.10;;
21170;SDS011;10743;52.160;20.910;2023-03-03T02:04:07;216.20;;;72.23;;
21170;SDS011;10743;52.160;20.910;2023-03-03T02:06:37;204.87;;;71.67;;
21170;SDS011;10743;52.160;20.910;2023-03-03T02:11:48;201.90;;;69.63;;
21170;SDS011;10743;52.160;20.910;2023-03-03T02:14:18;204.73;;;71.10;;
21170;SDS011;10743;52.160;20.910;2023-03-03T02:16:45;200.23;;;69.43;;
21170;SDS011;10743;52.160;20.910;2023-03-03T02:19:16;198.13;;;68.90;;
21170;SDS011;10743;52.160;20.910;2023-03-03T02:22:04;203.30;;;68.73;;
21170;SDS011;10743;52.160;20.910;2023-03-03T02:24:54;219.57;;;70.40;;
21170;SDS011;10743;52.160;20.910;2023-03-03T02:27:25;198.00;;;69.80;;
21170;SDS011;10743;52.160;20.910;2023-03-03T02:29:55;194.40;;;68.77;;
21170;SDS011;10743;52.160;20.910;2023-03-03T02:32:23;187.37;;;68.30;;
21170;SDS011;10743;52.160;20.910;2023-03-03T02:34:51;199.63;;;69.33;;
21170;SDS011;10743;52.160;20.910;2023-03-03T02:37:19;196.07;;;67.63;;
21170;SDS011;10743;52.160;20.910;2023-03-03T02:39:46;181.33;;;67.93;;
21170;SDS011;10743;52.160;20.910;2023-03-03T02:42:19;187.27;;;66.90;;
21170;SDS011;10743;52.160;20.910;2023-03-03T02:44:53;197.80;;;67.83;;
21170;SDS011;10743;52.160;20.910;2023-03-03T02:47:20;196.50;;;69.63;;
21170;SDS011;10743;52.160;20.910;2023-03-03T02:49:48;204.83;;;71.97;;
21170;SDS011;10743;52.160;20.910;2023-03-03T02:52:16;200.57;;;69.57;;
21170;SDS011;10743;52.160;20.910;2023-03-03T02:54:45;218.43;;;71.97;;
21170;SDS011;10743;52.160;20.910;2023-03-03T02:57:13;194.10;;;68.33;;
21170;SDS011;10743;52.160;20.910;2023-03-03T02:59:40;186.03;;;68.73;;
21170;SDS011;10743;52.160;20.910;2023-03-03T03:02:11;198.83;;;69.33;;
21170;SDS011;10743;52.160;20.910;2023-03-03T03:04:38;194.63;;;67.33;;
21170;SDS011;10743;52.160;20.910;2023-03-03T03:07:05;187.13;;;65.63;;
21170;SDS011;10743;52.160;20.910;2023-03-03T03:09:35;189.43;;;67.53;;
21170;SDS011;10743;52.160;20.910;2023-03-03T03:12:02;184.37;;;66.03;;
21170;SDS011;10743;52.160;20.910;2023-03-03T03:14:32;203.53;;;69.43;;
21170;SDS011;10743;52.160;20.910;2023-03-03T03:17:00;196.83;;;67.93;;
21170;SDS011;10743;52.160;20.910;2023-03-03T03:19:27;207.30;;;70.57;;
21170;SDS011;10743;52.160;20.910;2023-03-03T03:21:58;199.27;;;68.50;;
21170;SDS011;10743;52.160;20.910;2023-03-03T03:24:26;186.43;;;67.43;;
21170;SDS011;10743;52.160;20.910;2023-03-03T03:26:58;195.90;;;68.70;;
21170;SDS011;10743;52.160;20.910;2023-03-03T03:29:26;187.73;;;68.17;;
21170;SDS011;10743;52.160;20.910;2023-03-03T03:31:54;191.03;;;68.17;;
21170;SDS011;10743;52.160;20.910;2023-03-03T03:34:21;192.50;;;67.60;;
21170;SDS011;10743;52.160;20.910;2023-03-03T03:36:50;185.60;;;64.73;;
21170;SDS011;10743;52.160;20.910;2023-03-03T03:39:18;195.37;;;66.90;;
21170;SDS011;10743;52.160;20.910;2023-03-03T03:41:47;189.10;;;65.03;;
21170;SDS011;10743;52.160;20.910;2023-03-03T03:44:14;190.47;;;66.83;;
21170;SDS011;10743;52.160;20.910;2023-03-03T03:46:41;192.17;;;67.07;;
21170;SDS011;10743;52.160;20.910;2023-03-03T03:49:09;184.27;;;64.80;;
21170;SDS011;10743;52.160;20.910;2023-03-03T03:51:36;195.97;;;64.97;;
21170;SDS011;10743;52.160;20.910;2023-03-03T03:54:09;192.67;;;66.43;;
21170;SDS011;10743;52.160;20.910;2023-03-03T03:56:37;187.07;;;64.60;;
21170;SDS011;10743;52.160;20.910;2023-03-03T03:59:05;189.83;;;64.67;;
21170;SDS011;10743;52.160;20.910;2023-03-03T04:01:33;186.93;;;65.37;;
21170;SDS011;10743;52.160;20.910;2023-03-03T04:04:00;190.90;;;66.70;;
21170;SDS011;10743;52.160;20.910;2023-03-03T04:06:29;189.83;;;64.37;;
21170;SDS011;10743;52.160;20.910;2023-03-03T04:08:57;182.93;;;65.97;;
21170;SDS011;10743;52.160;20.910;2023-03-03T04:11:26;197.83;;;65.10;;
21170;SDS011;10743;52.160;20.910;2023-03-03T04:13:53;189.60;;;66.03;;
21170;SDS011;10743;52.160;20.910;2023-03-03T04:16:20;185.37;;;62.30;;
21170;SDS011;10743;52.160;20.910;2023-03-03T04:18:48;189.50;;;64.93;;
21170;SDS011;10743;52.160;20.910;2023-03-03T04:21:16;187.13;;;65.87;;
21170;SDS011;10743;52.160;20.910;2023-03-03T04:23:44;192.80;;;64.37;;
21170;SDS011;10743;52.160;20.910;2023-03-03T04:26:12;187.97;;;63.10;;
21170;SDS011;10743;52.160;20.910;2023-03-03T04:28:40;192.03;;;67.23;;
21170;SDS011;10743;52.160;20.910;2023-03-03T04:31:08;194.77;;;66.13;;
21170;SDS011;10743;52.160;20.910;2023-03-03T04:33:36;190.37;;;66.13;;
21170;SDS011;10743;52.160;20.910;2023-03-03T04:36:04;191.57;;;65.50;;
21170;SDS011;10743;52.160;20.910;2023-03-03T04:38:31;192.13;;;66.03;;
21170;SDS011;10743;52.160;20.910;2023-03-03T04:40:59;197.60;;;67.10;;
21170;SDS011;10743;52.160;20.910;2023-03-03T04:43:30;192.57;;;65.87;;
21170;SDS011;10743;52.160;20.910;2023-03-03T04:45:58;199.17;;;67.67;;
21170;SDS011;10743;52.160;20.910;2023-03-03T04:48:25;202.47;;;68.10;;
21170;SDS011;10743;52.160;20.910;2023-03-03T04:50:53;176.53;;;64.00;;
21170;SDS011;10743;52.160;20.910;2023-03-03T04:53:20;160.63;;;58.73;;
21170;SDS011;10743;52.160;20.910;2023-03-03T04:55:51;170.43;;;60.13;;
21170;SDS011;10743;52.160;20.910;2023-03-03T04:58:20;171.67;;;59.83;;
21170;SDS011;10743;52.160;20.910;2023-03-03T05:00:53;166.63;;;62.33;;
21170;SDS011;10743;52.160;20.910;2023-03-03T05:03:23;169.10;;;61.93;;
21170;SDS011;10743;52.160;20.910;2023-03-03T05:05:52;184.67;;;63.20;;
21170;SDS011;10743;52.160;20.910;2023-03-03T05:08:19;214.80;;;68.90;;
21170;SDS011;10743;52.160;20.910;2023-03-03T05:10:50;210.47;;;70.30;;
21170;SDS011;10743;52.160;20.910;2023-03-03T05:13:18;194.07;;;66.93;;
21170;SDS011;10743;52.160;20.910;2023-03-03T05:15:53;202.83;;;68.37;;
21170;SDS011;10743;52.160;20.910;2023-03-03T05:18:25;196.67;;;67.87;;
21170;SDS011;10743;52.160;20.910;2023-03-03T05:20:53;199.33;;;67.80;;
21170;SDS011;10743;52.160;20.910;2023-03-03T05:23:20;204.13;;;71.00;;
21170;SDS011;10743;52.160;20.910;2023-03-03T05:25:48;202.83;;;67.43;;
21170;SDS011;10743;52.160;20.910;2023-03-03T05:28:16;206.17;;;69.13;;
21170;SDS011;10743;52.160;20.910;2023-03-03T05:30:43;201.07;;;71.77;;
21170;SDS011;10743;52.160;20.910;2023-03-03T05:33:12;209.53;;;70.00;;
21170;SDS011;10743;52.160;20.910;2023-03-03T05:35:40;197.80;;;69.73;;
21170;SDS011;10743;52.160;20.910;2023-03-03T05:38:09;200.17;;;69.27;;
21170;SDS011;10743;52.160;20.910;2023-03-03T05:40:36;219.13;;;73.07;;
21170;SDS011;10743;52.160;20.910;2023-03-03T05:43:04;207.90;;;69.60;;
21170;SDS011;10743;52.160;20.910;2023-03-03T05:45:32;211.13;;;70.53;;
21170;SDS011;10743;52.160;20.910;2023-03-03T05:48:00;232.00;;;73.10;;
21170;SDS011;10743;52.160;20.910;2023-03-03T05:50:29;219.03;;;73.60;;
21170;SDS011;10743;52.160;20.910;2023-03-03T05:52:57;220.87;;;72.90;;
21170;SDS011;10743;52.160;20.910;2023-03-03T05:55:24;213.87;;;68.20;;
21170;SDS011;10743;52.160;20.910;2023-03-03T05:57:52;217.17;;;71.47;;
21170;SDS011;10743;52.160;20.910;2023-03-03T06:00:19;215.40;;;72.43;;
21170;SDS011;10743;52.160;20.910;2023-03-03T06:02:46;218.93;;;72.90;;
21170;SDS011;10743;52.160;20.910;2023-03-03T06:05:14;233.33;;;76.23;;
21170;SDS011;10743;52.160;20.910;2023-03-03T06:07:41;228.53;;;76.13;;
21170;SDS011;10743;52.160;20.910;2023-03-03T06:10:08;225.83;;;74.93;;
21170;SDS011;10743;52.160;20.910;2023-03-03T06:12:38;232.73;;;73.17;;
21170;SDS011;10743;52.160;20.910;2023-03-03T06:15:07;207.10;;;68.83;;
21170;SDS011;10743;52.160;20.910;2023-03-03T06:17:35;228.67;;;72.57;;
21170;SDS011;10743;52.160;20.910;2023-03-03T06:20:03;210.73;;;70.53;;
21170;SDS011;10743;52.160;20.910;2023-03-03T06:22:31;207.77;;;69.60;;
21170;SDS011;10743;52.160;20.910;2023-03-03T06:24:58;208.97;;;70.13;;
21170;SDS011;10743;52.160;20.910;2023-03-03T06:27:25;196.13;;;68.57;;
21170;SDS011;10743;52.160;20.910;2023-03-03T06:29:52;203.53;;;71.33;;
21170;SDS011;10743;52.160;20.910;2023-03-03T06:32:20;203.87;;;68.23;;
21170;SDS011;10743;52.160;20.910;2023-03-03T06:34:47;215.87;;;72.63;;
21170;SDS011;10743;52.160;20.910;2023-03-03T06:37:14;214.73;;;73.30;;
21170;SDS011;10743;52.160;20.910;2023-03-03T06:39:42;185.27;;;64.27;;
21170;SDS011;10743;52.160;20.910;2023-03-03T06:42:09;206.43;;;69.23;;
21170;SDS011;10743;52.160;20.910;2023-03-03T06:44:36;200.73;;;71.30;;
21170;SDS011;10743;52.160;20.910;2023-03-03T06:47:03;205.80;;;70.23;;
21170;SDS011;10743;52.160;20.910;2023-03-03T06:49:31;233.00;;;77.77;;
21170;SDS011;10743;52.160;20.910;2023-03-03T06:51:58;213.47;;;75.17;;
21170;SDS011;10743;52.160;20.910;2023-03-03T06:54:35;186.03;;;64.80;;
21170;SDS011;10743;52.160;20.910;2023-03-03T06:57:06;202.17;;;71.43;;
21170;SDS011;10743;52.160;20.910;2023-03-03T07:00:10;204.90;;;71.40;;
21170;SDS011;10743;52.160;20.910;2023-03-03T07:02:42;182.73;;;63.97;;
21170;SDS011;10743;52.160;20.910;2023-03-03T07:05:10;194.67;;;67.97;;
21170;SDS011;10743;52.160;20.910;2023-03-03T07:07:43;187.73;;;65.13;;
21170;SDS011;10743;52.160;20.910;2023-03-03T07:10:12;196.93;;;67.40;;
21170;SDS011;10743;52.160;20.910;2023-03-03T07:12:52;195.23;;;69.37;;
21170;SDS011;10743;52.160;20.910;2023-03-03T07:17:54;250.97;;;80.20;;
21170;SDS011;10743;52.160;20.910;2023-03-03T07:20:32;207.33;;;72.20;;
21170;SDS011;10743;52.160;20.910;2023-03-03T07:23:09;183.77;;;65.27;;
21170;SDS011;10743;52.160;20.910;2023-03-03T07:25:49;186.87;;;63.13;;
21170;SDS011;10743;52.160;20.910;2023-03-03T07:28:29;190.37;;;64.37;;
21170;SDS011;10743;52.160;20.910;2023-03-03T07:30:59;195.23;;;64.70;;
21170;SDS011;10743;52.160;20.910;2023-03-03T07:33:36;176.97;;;61.53;;
21170;SDS011;10743;52.160;20.910;2023-03-03T07:36:56;194.67;;;74.70;;
21170;SDS011;10743;52.160;20.910;2023-03-03T07:39:03;193.53;;;65.00;;
21170;SDS011;10743;52.160;20.910;2023-03-03T07:42:13;195.17;;;65.80;;
21170;SDS011;10743;52.160;20.910;2023-03-03T07:45:26;183.30;;;62.37;;
21170;SDS011;10743;52.160;20.910;2023-03-03T07:50:56;201.20;;;69.50;;
21170;SDS011;10743;52.160;20.910;2023-03-03T07:53:32;196.57;;;66.10;;
21170;SDS011;10743;52.160;20.910;2023-03-03T07:56:05;202.43;;;65.97;;
21170;SDS011;10743;52.160;20.910;2023-03-03T07:58:52;191.53;;;64.30;;
21170;SDS011;10743;52.160;20.910;2023-03-03T08:01:28;195.53;;;64.90;;
21170;SDS011;10743;52.160;20.910;2023-03-03T08:03:57;195.33;;;62.70;;
21170;SDS011;10743;52.160;20.910;2023-03-03T08:09:01;187.87;;;62.30;;
21170;SDS011;10743;52.160;20.910;2023-03-03T08:14:35;197.50;;;63.13;;
21170;SDS011;10743;52.160;20.910;2023-03-03T08:17:06;195.43;;;64.27;;
21170;SDS011;10743;52.160;20.910;2023-03-03T08:19:50;207.33;;;68.90;;
21170;SDS011;10743;52.160;20.910;2023-03-03T08:22:33;193.30;;;63.27;;
21170;SDS011;10743;52.160;20.910;2023-03-03T08:25:01;197.60;;;66.80;;
21170;SDS011;10743;52.160;20.910;2023-03-03T08:27:29;196.50;;;65.90;;
21170;SDS011;10743;52.160;20.910;2023-03-03T08:29:56;204.23;;;65.73;;
21170;SDS011;10743;52.160;20.910;2023-03-03T08:32:23;194.10;;;64.27;;
21170;SDS011;10743;52.160;20.910;2023-03-03T08:34:50;196.33;;;68.20;;
21170;SDS011;10743;52.160;20.910;2023-03-03T08:37:17;187.23;;;64.13;;
21170;SDS011;10743;52.160;20.910;2023-03-03T08:39:44;192.67;;;66.83;;
21170;SDS011;10743;52.160;20.910;2023-03-03T08:42:12;199.00;;;66.83;;
21170;SDS011;10743;52.160;20.910;2023-03-03T08:44:41;192.17;;;64.87;;
21170;SDS011;10743;52.160;20.910;2023-03-03T08:47:08;202.67;;;67.17;;
21170;SDS011;10743;52.160;20.910;2023-03-03T08:49:35;190.07;;;62.53;;
21170;SDS011;10743;52.160;20.910;2023-03-03T08:52:02;193.53;;;63.87;;
21170;SDS011;10743;52.160;20.910;2023-03-03T08:54:30;190.43;;;63.07;;
21170;SDS011;10743;52.160;20.910;2023-03-03T08:56:57;205.37;;;71.37;;
21170;SDS011;10743;52.160;20.910;2023-03-03T08:59:24;190.53;;;64.43;;
21170;SDS011;10743;52.160;20.910;2023-03-03T09:01:51;189.73;;;65.80;;
21170;SDS011;10743;52.160;20.910;2023-03-03T09:04:18;202.57;;;65.30;;
21170;SDS011;10743;52.160;20.910;2023-03-03T09:06:45;185.93;;;61.93;;
21170;SDS011;10743;52.160;20.910;2023-03-03T09:09:13;195.13;;;64.97;;
21170;SDS011;10743;52.160;20.910;2023-03-03T09:11:40;183.00;;;62.57;;
21170;SDS011;10743;52.160;20.910;2023-03-03T09:14:09;187.37;;;63.37;;
21170;SDS011;10743;52.160;20.910;2023-03-03T09:16:40;192.00;;;69.97;;
21170;SDS011;10743;52.160;20.910;2023-03-03T09:19:18;180.53;;;63.87;;
21170;SDS011;10743;52.160;20.910;2023-03-03T09:22:22;177.23;;;61.10;;
21170;SDS011;10743;52.160;20.910;2023-03-03T09:25:00;176.80;;;60.90;;
21170;SDS011;10743;52.160;20.910;2023-03-03T09:27:28;184.57;;;64.00;;
21170;SDS011;10743;52.160;20.910;2023-03-03T09:30:01;189.23;;;63.90;;
21170;SDS011;10743;52.160;20.910;2023-03-03T09:32:52;194.90;;;64.27;;
21170;SDS011;10743;52.160;20.910;2023-03-03T09:35:28;195.33;;;67.67;;
21170;SDS011;10743;52.160;20.910;2023-03-03T09:38:16;190.37;;;64.87;;
21170;SDS011;10743;52.160;20.910;2023-03-03T09:41:14;180.03;;;62.33;;
21170;SDS011;10743;52.160;20.910;2023-03-03T09:53:49;177.37;;;62.30;;
21170;SDS011;10743;52.160;20.910;2023-03-03T10:06:10;200.23;;;64.10;;
21170;SDS011;10743;52.160;20.910;2023-03-03T10:09:01;190.60;;;64.13;;
21170;SDS011;10743;52.160;20.910;2023-03-03T10:15:14;189.80;;;62.07;;
21170;SDS011;10743;52.160;20.910;2023-03-03T10:18:01;184.83;;;61.80;;
21170;SDS011;10743;52.160;20.910;2023-03-03T10:20:46;193.70;;;62.90;;
21170;SDS011;10743;52.160;20.910;2023-03-03T10:23:59;192.93;;;65.30;;
21170;SDS011;10743;52.160;20.910;2023-03-03T10:54:16;182.17;;;63.70;;
21170;SDS011;10743;52.160;20.910;2023-03-03T11:06:25;193.50;;;65.50;;
21170;SDS011;10743;52.160;20.910;2023-03-03T11:12:19;193.27;;;69.23;;
21170;SDS011;10743;52.160;20.910;2023-03-03T11:28:56;176.90;;;60.63;;
21170;SDS011;10743;52.160;20.910;2023-03-03T11:31:48;168.67;;;60.27;;
21170;SDS011;10743;52.160;20.910;2023-03-03T11:43:35;175.47;;;58.47;;
21170;SDS011;10743;52.160;20.910;2023-03-03T11:46:13;160.17;;;56.77;;
21170;SDS011;10743;52.160;20.910;2023-03-03T11:51:43;163.53;;;56.57;;
21170;SDS011;10743;52.160;20.910;2023-03-03T12:00:30;176.17;;;61.37;;
21170;SDS011;10743;52.160;20.910;2023-03-03T12:03:13;164.00;;;58.63;;
21170;SDS011;10743;52.160;20.910;2023-03-03T12:06:07;163.17;;;58.57;;
21170;SDS011;10743;52.160;20.910;2023-03-03T12:20:48;175.10;;;58.90;;
21170;SDS011;10743;52.160;20.910;2023-03-03T12:29:38;170.30;;;56.73;;
21170;SDS011;10743;52.160;20.910;2023-03-03T12:35:14;158.63;;;55.27;;
21170;SDS011;10743;52.160;20.910;2023-03-03T12:44:14;163.77;;;56.17;;
21170;SDS011;10743;52.160;20.910;2023-03-03T12:47:00;164.07;;;54.90;;
21170;SDS011;10743;52.160;20.910;2023-03-03T13:01:48;154.07;;;55.37;;
21170;SDS011;10743;52.160;20.910;2023-03-03T13:17:31;182.17;;;62.57;;
21170;SDS011;10743;52.160;20.910;2023-03-03T13:23:03;156.83;;;57.73;;
21170;SDS011;10743;52.160;20.910;2023-03-03T13:25:57;155.63;;;55.77;;
21170;SDS011;10743;52.160;20.910;2023-03-03T13:29:03;153.57;;;54.77;;
21170;SDS011;10743;52.160;20.910;2023-03-03T13:32:07;161.57;;;56.57;;
21170;SDS011;10743;52.160;20.910;2023-03-03T13:37:26;175.10;;;60.27;;
21170;SDS011;10743;52.160;20.910;2023-03-03T13:51:23;174.10;;;58.80;;
21170;SDS011;10743;52.160;20.910;2023-03-03T13:57:13;166.90;;;57.33;;
21170;SDS011;10743;52.160;20.910;2023-03-03T14:05:15;192.23;;;61.03;;
21170;SDS011;10743;52.160;20.910;2023-03-03T14:08:13;184.90;;;59.63;;
21170;SDS011;10743;52.160;20.910;2023-03-03T14:19:47;176.17;;;57.90;;
21170;SDS011;10743;52.160;20.910;2023-03-03T14:25:11;175.63;;;57.77;;
21170;SDS011;10743;52.160;20.910;2023-03-03T14:27:53;174.10;;;59.60;;
21170;SDS011;10743;52.160;20.910;2023-03-03T14:30:52;177.23;;;59.00;;
21170;SDS011;10743;52.160;20.910;2023-03-03T14:33:27;180.57;;;60.50;;
21170;SDS011;10743;52.160;20.910;2023-03-03T14:41:13;182.53;;;58.90;;
21170;SDS011;10743;52.160;20.910;2023-03-03T14:46:45;172.00;;;57.97;;
21170;SDS011;10743;52.160;20.910;2023-03-03T14:49:38;204.90;;;62.27;;
21170;SDS011;10743;52.160;20.910;2023-03-03T14:54:45;184.27;;;59.00;;
21170;SDS011;10743;52.160;20.910;2023-03-03T15:03:29;180.27;;;58.67;;
21170;SDS011;10743;52.160;20.910;2023-03-03T15:05:56;165.87;;;57.20;;
21170;SDS011;10743;52.160;20.910;2023-03-03T15:08:27;174.73;;;60.20;;
21170;SDS011;10743;52.160;20.910;2023-03-03T15:14:11;172.07;;;58.33;;
21170;SDS011;10743;52.160;20.910;2023-03-03T15:16:41;169.83;;;60.20;;
21170;SDS011;10743;52.160;20.910;2023-03-03T15:22:45;165.30;;;57.07;;
21170;SDS011;10743;52.160;20.910;2023-03-03T15:25:27;169.20;;;58.70;;
21170;SDS011;10743;52.160;20.910;2023-03-03T15:28:28;158.83;;;57.27;;
21170;SDS011;10743;52.160;20.910;2023-03-03T15:42:31;211.03;;;71.80;;
21170;SDS011;10743;52.160;20.910;2023-03-03T15:54:36;177.23;;;58.47;;
21170;SDS011;10743;52.160;20.910;2023-03-03T15:57:35;175.13;;;59.53;;
21170;SDS011;10743;52.160;20.910;2023-03-03T16:02:53;180.17;;;60.53;;
21170;SDS011;10743;52.160;20.910;2023-03-03T16:05:29;164.07;;;58.83;;
21170;SDS011;10743;52.160;20.910;2023-03-03T16:10:48;182.40;;;62.90;;
21170;SDS011;10743;52.160;20.910;2023-03-03T16:13:52;178.00;;;62.83;;
21170;SDS011;10743;52.160;20.910;2023-03-03T16:16:39;179.37;;;60.50;;
21170;SDS011;10743;52.160;20.910;2023-03-03T16:40:19;153.37;;;55.40;;
21170;SDS011;10743;52.160;20.910;2023-03-03T16:42:32;290.73;;;74.50;;
21170;SDS011;10743;52.160;20.910;2023-03-03T16:56:23;160.80;;;56.23;;
21170;SDS011;10743;52.160;20.910;2023-03-03T17:01:59;176.73;;;57.87;;
21170;SDS011;10743;52.160;20.910;2023-03-03T17:07:36;158.77;;;53.70;;
21170;SDS011;10743;52.160;20.910;2023-03-03T17:10:23;175.87;;;60.83;;
21170;SDS011;10743;52.160;20.910;2023-03-03T17:19:07;172.40;;;59.83;;
21170;SDS011;10743;52.160;20.910;2023-03-03T17:24:44;177.17;;;58.87;;
21170;SDS011;10743;52.160;20.910;2023-03-03T17:38:36;198.20;;;79.17;;
21170;SDS011;10743;52.160;20.910;2023-03-03T17:41:26;177.13;;;57.63;;
21170;SDS011;10743;52.160;20.910;2023-03-03T17:47:33;179.60;;;61.03;;
21170;SDS011;10743;52.160;20.910;2023-03-03T17:50:26;182.80;;;63.87;;
21170;SDS011;10743;52.160;20.910;2023-03-03T18:02:53;177.43;;;60.43;;
21170;SDS011;10743;52.160;20.910;2023-03-03T18:17:31;209.97;;;71.40;;
21170;SDS011;10743;52.160;20.910;2023-03-03T18:23:18;208.60;;;68.73;;
21170;SDS011;10743;52.160;20.910;2023-03-03T18:25:57;190.33;;;66.87;;
21170;SDS011;10743;52.160;20.910;2023-03-03T18:28:37;173.73;;;59.40;;
21170;SDS011;10743;52.160;20.910;2023-03-03T18:31:22;186.80;;;65.17;;
21170;SDS011;10743;52.160;20.910;2023-03-03T18:38:58;188.07;;;61.00;;
21170;SDS011;10743;52.160;20.910;2023-03-03T18:41:32;199.63;;;77.93;;
21170;SDS011;10743;52.160;20.910;2023-03-03T18:44:48;176.10;;;62.37;;
21170;SDS011;10743;52.160;20.910;2023-03-03T18:47:15;183.77;;;70.03;;
21170;SDS011;10743;52.160;20.910;2023-03-03T18:52:23;181.10;;;61.07;;
21170;SDS011;10743;52.160;20.910;2023-03-03T18:57:35;174.50;;;59.80;;
21170;SDS011;10743;52.160;20.910;2023-03-03T19:00:22;203.47;;;94.10;;
21170;SDS011;10743;52.160;20.910;2023-03-03T19:02:55;170.47;;;59.40;;
21170;SDS011;10743;52.160;20.910;2023-03-03T19:05:25;172.00;;;58.77;;
21170;SDS011;10743;52.160;20.910;2023-03-03T19:10:48;170.03;;;58.83;;
21170;SDS011;10743;52.160;20.910;2023-03-03T19:21:24;177.40;;;63.73;;
21170;SDS011;10743;52.160;20.910;2023-03-03T19:29:36;171.27;;;59.10;;
21170;SDS011;10743;52.160;20.910;2023-03-03T20:01:55;172.00;;;58.80;;
21170;SDS011;10743;52.160;20.910;2023-03-03T20:04:35;185.43;;;61.73;;
21170;SDS011;10743;52.160;20.910;2023-03-03T20:07:37;177.10;;;61.43;;
21170;SDS011;10743;52.160;20.910;2023-03-03T20:11:04;166.93;;;58.00;;
21170;SDS011;10743;52.160;20.910;2023-03-03T20:13:47;178.87;;;59.57;;
21170;SDS011;10743;52.160;20.910;2023-03-03T20:16:36;170.23;;;59.93;;
21170;SDS011;10743;52.160;20.910;2023-03-03T20:19:14;174.80;;;60.03;;
21170;SDS011;10743;52.160;20.910;2023-03-03T20:22:09;194.10;;;66.23;;
21170;SDS011;10743;52.160;20.910;2023-03-03T20:25:01;207.77;;;70.13;;
21170;SDS011;10743;52.160;20.910;2023-03-03T20:28:05;202.63;;;67.40;;
21170;SDS011;10743;52.160;20.910;2023-03-03T20:33:54;185.70;;;61.23;;
21170;SDS011;10743;52.160;20.910;2023-03-03T20:37:09;194.47;;;64.07;;
21170;SDS011;10743;52.160;20.910;2023-03-03T20:43:09;170.23;;;60.00;;
21170;SDS011;10743;52.160;20.910;2023-03-03T20:45:47;187.67;;;64.27;;
21170;SDS011;10743;52.160;20.910;2023-03-03T20:51:21;172.90;;;60.80;;
21170;SDS011;10743;52.160;20.910;2023-03-03T20:59:58;178.47;;;62.77;;
21170;SDS011;10743;52.160;20.910;2023-03-03T21:02:43;175.57;;;66.87;;
21170;SDS011;10743;52.160;20.910;2023-03-03T21:05:18;182.83;;;65.87;;
21170;SDS011;10743;52.160;20.910;2023-03-03T21:07:52;178.60;;;63.07;;
21170;SDS011;10743;52.160;20.910;2023-03-03T21:10:31;185.53;;;64.07;;
21170;SDS011;10743;52.160;20.910;2023-03-03T21:16:05;202.47;;;67.57;;
21170;SDS011;10743;52.160;20.910;2023-03-03T21:21:35;237.87;;;78.40;;
21170;SDS011;10743;52.160;20.910;2023-03-03T21:24:09;221.80;;;73.97;;
21170;SDS011;10743;52.160;20.910;2023-03-03T21:26:52;212.30;;;71.23;;
21170;SDS011;10743;52.160;20.910;2023-03-03T21:32:04;238.37;;;76.53;;
21170;SDS011;10743;52.160;20.910;2023-03-03T21:34:35;225.93;;;77.47;;
21170;SDS011;10743;52.160;20.910;2023-03-03T21:37:09;233.50;;;73.03;;
21170;SDS011;10743;52.160;20.910;2023-03-03T21:39:41;214.60;;;73.87;;
21170;SDS011;10743;52.160;20.910;2023-03-03T21:44:57;185.83;;;65.27;;
21170;SDS011;10743;52.160;20.910;2023-03-03T21:47:40;193.57;;;63.97;;